createdAt,value
2022-07-31T00:01:43.172Z,82.13
2022-07-31T00:04:13.943Z,81.15
2022-07-31T00:06:44.333Z,81.94
2022-07-31T00:09:45.331Z,81.61
2022-07-31T00:11:47.152Z,81.61
2022-07-31T00:14:17.713Z,81.33
2022-07-31T00:16:48.510Z,81.33
2022-07-31T00:19:18.883Z,82.33
2022-07-31T00:21:49.349Z,82.50
2022-07-31T00:24:19.795Z,82.91
2022-07-31T00:26:52.909Z,82.93
2022-07-31T00:29:22.213Z,82.93
2022-07-31T00:31:55.054Z,82.47
2022-07-31T00:34:25.433Z,83.02
2022-07-31T00:36:55.912Z,82.92
2022-07-31T00:39:26.293Z,83.19
2022-07-31T00:41:56.723Z,84.18
2022-07-31T00:44:27.130Z,83.74
2022-07-31T00:46:57.453Z,83.42
2022-07-31T00:49:37.544Z,84.38
2022-07-31T00:52:00.144Z,84.38
2022-07-31T00:54:30.910Z,84.47
2022-07-31T00:57:02.060Z,84.35
2022-07-31T00:59:32.885Z,84.20
2022-07-31T01:02:03.702Z,84.20
2022-07-31T01:04:34.138Z,85.16
2022-07-31T01:07:06.763Z,84.61
2022-07-31T01:09:37.646Z,85.35
2022-07-31T01:12:50.903Z,85.54
2022-07-31T01:15:21.641Z,86.13
2022-07-31T01:17:53.878Z,86.13
2022-07-31T01:20:26.058Z,86.02
2022-07-31T01:23:11.359Z,86.37
2022-07-31T01:25:59.562Z,86.37
2022-07-31T01:28:50.416Z,85.98
2022-07-31T01:31:28.900Z,86.22
2022-07-31T01:34:18.412Z,86.41
2022-07-31T01:36:51.654Z,87.23
2022-07-31T01:39:22.930Z,87.23
2022-07-31T01:41:55.013Z,86.53
2022-07-31T01:44:27.485Z,86.25
2022-07-31T01:46:58.628Z,86.25
2022-07-31T01:49:30.373Z,87.05
2022-07-31T01:52:04.518Z,86.68
2022-07-31T01:54:36.848Z,86.19
2022-07-31T01:57:09.878Z,86.96
2022-07-31T01:59:44.715Z,86.96
2022-07-31T02:02:15.761Z,87.38
2022-07-31T02:04:48.179Z,87.46
2022-07-31T02:07:20.223Z,87.57
2022-07-31T02:09:58.533Z,87.91
2022-07-31T02:12:33.821Z,87.86
2022-07-31T02:14:58.998Z,87.86
2022-07-31T02:17:29.727Z,87.86
2022-07-31T02:20:01.959Z,87.86
2022-07-31T02:22:33.677Z,87.66
2022-07-31T02:25:06.100Z,87.17
2022-07-31T02:27:59.155Z,87.89
2022-07-31T02:30:39.261Z,87.89
2022-07-31T02:33:07.320Z,87.58
2022-07-31T02:35:45.074Z,87.88
2022-07-31T02:38:23.272Z,88.72
2022-07-31T02:41:00.140Z,88.72
2022-07-31T02:43:33.398Z,88.31
2022-07-31T02:46:05.196Z,88.75
2022-07-31T02:48:36.373Z,88.75
2022-07-31T02:51:07.180Z,88.36
2022-07-31T02:53:38.647Z,88.69
2022-07-31T02:56:09.479Z,88.69
2022-07-31T02:58:42.877Z,88.77
2022-07-31T03:01:16.138Z,88.04
2022-07-31T03:03:49.566Z,88.58
2022-07-31T03:06:20.402Z,88.58
2022-07-31T03:08:51.230Z,89.91
2022-07-31T03:11:24.274Z,89.77
2022-07-31T03:14:04.490Z,88.28
2022-07-31T03:16:36.384Z,88.28
2022-07-31T03:19:08.631Z,89.20
2022-07-31T03:21:59.768Z,89.29
2022-07-31T03:24:30.584Z,88.59
2022-07-31T03:27:01.576Z,88.47
2022-07-31T03:29:43.788Z,88.38
2022-07-31T03:32:14.824Z,88.48
2022-07-31T03:34:45.190Z,89.45
2022-07-31T03:37:15.648Z,89.45
2022-07-31T03:39:46.021Z,89.87
2022-07-31T03:42:19.213Z,88.50
2022-07-31T03:44:49.708Z,87.29
2022-07-31T03:47:20.544Z,87.29
2022-07-31T03:49:51.378Z,87.35
2022-07-31T03:52:22.168Z,87.38
2022-07-31T03:54:54.622Z,87.38
2022-07-31T03:57:45.402Z,86.14
2022-07-31T04:00:18.017Z,86.14
2022-07-31T04:02:48.908Z,84.56
2022-07-31T04:05:19.296Z,84.56
2022-07-31T04:07:50.766Z,83.17
2022-07-31T04:10:23.458Z,83.17
2022-07-31T04:12:54.707Z,81.49
2022-07-31T04:15:25.557Z,79.74
2022-07-31T04:17:56.362Z,78.97
2022-07-31T04:20:26.731Z,75.89
2022-07-31T04:22:57.139Z,75.89
2022-07-31T04:25:28.440Z,76.72
2022-07-31T04:28:01.089Z,76.72
2022-07-31T04:30:31.835Z,76.20
2022-07-31T04:33:02.381Z,74.39
2022-07-31T04:35:33.342Z,74.39
2022-07-31T04:38:03.806Z,72.26
2022-07-31T04:40:34.744Z,71.89
2022-07-31T04:43:05.935Z,70.59
2022-07-31T04:45:36.800Z,70.59
2022-07-31T04:48:07.507Z,71.54
2022-07-31T04:50:38.068Z,69.71
2022-07-31T04:53:08.492Z,68.62
2022-07-31T04:55:40.954Z,68.62
2022-07-31T04:58:11.006Z,67.19
2022-07-31T05:00:41.754Z,67.19
2022-07-31T05:03:18.408Z,66.13
2022-07-31T05:05:48.937Z,66.13
2022-07-31T05:08:19.610Z,65.07
2022-07-31T05:10:50.002Z,65.07
2022-07-31T05:13:20.499Z,62.15
2022-07-31T05:15:51.079Z,60.59
2022-07-31T05:18:21.528Z,60.59
2022-07-31T05:20:51.923Z,60.64
2022-07-31T05:23:22.372Z,60.64
2022-07-31T05:25:52.704Z,58.05
2022-07-31T05:28:29.583Z,59.03
2022-07-31T05:30:56.868Z,57.98
2022-07-31T05:33:27.980Z,57.38
2022-07-31T05:36:03.709Z,58.28
2022-07-31T05:38:40.391Z,58.59
2022-07-31T05:41:14.237Z,55.94
2022-07-31T05:43:44.821Z,55.94
2022-07-31T05:46:15.202Z,56.06
2022-07-31T05:48:46.375Z,53.91
2022-07-31T05:51:16.814Z,53.91
2022-07-31T05:53:48.979Z,57.48
2022-07-31T05:56:19.355Z,51.05
2022-07-31T05:58:49.791Z,51.05
2022-07-31T06:01:21.202Z,50.01
2022-07-31T06:03:52.595Z,47.18
2022-07-31T06:06:23.218Z,47.53
2022-07-31T06:08:53.735Z,48.80
2022-07-31T06:11:24.936Z,46.93
2022-07-31T06:13:55.336Z,47.24
2022-07-31T06:16:25.773Z,45.29
2022-07-31T06:18:56.216Z,45.29
2022-07-31T06:21:30.518Z,44.57
2022-07-31T06:23:58.958Z,44.49
2022-07-31T06:26:29.353Z,45.17
2022-07-31T06:28:59.924Z,42.92
2022-07-31T06:31:30.666Z,42.46
2022-07-31T06:34:01.019Z,42.46
2022-07-31T06:36:31.605Z,40.74
2022-07-31T06:39:02.012Z,40.74
2022-07-31T06:41:32.869Z,39.79
2022-07-31T06:44:03.396Z,39.01
2022-07-31T06:46:34.465Z,38.69
2022-07-31T06:49:08.697Z,36.89
2022-07-31T06:51:39.342Z,36.89
2022-07-31T06:54:14.769Z,35.56
2022-07-31T06:56:47.257Z,35.08
2022-07-31T06:59:39.263Z,34.32
2022-07-31T07:01:55.988Z,32.77
2022-07-31T07:05:04.950Z,33.84
2022-07-31T07:06:58.855Z,32.70
2022-07-31T07:10:06.628Z,32.28
2022-07-31T07:12:31.499Z,32.15
2022-07-31T07:15:03.430Z,30.07
2022-07-31T07:17:34.173Z,30.07
2022-07-31T07:23:09.456Z,31.79
2022-07-31T07:25:43.742Z,30.74
2022-07-31T07:28:31.209Z,28.63
2022-07-31T07:30:51.602Z,28.74
2022-07-31T07:33:40.753Z,28.74
2022-07-31T07:35:58.360Z,28.93
2022-07-31T07:38:31.926Z,28.93
2022-07-31T07:41:04.136Z,29.36
2022-07-31T07:43:34.473Z,29.31
2022-07-31T07:46:04.834Z,28.64
2022-07-31T07:48:37.423Z,28.13
2022-07-31T07:51:07.963Z,27.96
2022-07-31T07:53:39.667Z,28.58
2022-07-31T07:56:11.775Z,27.48
2022-07-31T07:58:51.020Z,27.48
2022-07-31T08:01:23.598Z,28.32
2022-07-31T08:03:54.043Z,27.93
2022-07-31T08:06:24.521Z,27.68
2022-07-31T08:09:03.595Z,27.00
2022-07-31T08:11:38.964Z,27.14
2022-07-31T08:14:09.473Z,25.97
2022-07-31T08:16:39.995Z,25.97
2022-07-31T08:19:10.318Z,26.65
2022-07-31T08:21:41.363Z,26.48
2022-07-31T08:24:11.747Z,26.48
2022-07-31T08:26:42.234Z,25.67
2022-07-31T08:29:15.608Z,25.67
2022-07-31T08:31:49.740Z,24.95
2022-07-31T08:34:31.510Z,24.95
2022-07-31T08:36:54.670Z,25.38
2022-07-31T08:39:25.097Z,25.38
2022-07-31T08:41:55.626Z,24.86
2022-07-31T08:44:30.938Z,25.77
2022-07-31T08:47:05.088Z,25.96
2022-07-31T08:49:45.279Z,26.21
2022-07-31T08:52:25.002Z,26.21
2022-07-31T08:54:55.835Z,25.60
2022-07-31T08:57:26.337Z,25.91
2022-07-31T08:59:56.846Z,25.09
2022-07-31T09:02:27.190Z,24.77
2022-07-31T09:04:58.160Z,23.93
2022-07-31T09:07:29.802Z,24.03
2022-07-31T09:10:04.639Z,24.03
2022-07-31T09:12:37.282Z,25.37
2022-07-31T09:15:30.602Z,25.37
2022-07-31T09:18:02.466Z,23.29
2022-07-31T09:20:33.005Z,24.04
2022-07-31T09:23:10.351Z,24.04
2022-07-31T09:25:59.681Z,23.03
2022-07-31T09:28:48.934Z,23.03
2022-07-31T09:31:23.781Z,23.73
2022-07-31T09:33:54.635Z,23.34
2022-07-31T09:36:25.523Z,23.48
2022-07-31T09:38:56.720Z,23.23
2022-07-31T09:42:00.184Z,23.91
2022-07-31T09:44:01.737Z,23.91
2022-07-31T09:46:43.387Z,22.32
2022-07-31T09:49:14.756Z,22.47
2022-07-31T09:51:47.053Z,22.47
2022-07-31T09:54:22.271Z,22.31
2022-07-31T09:56:52.687Z,22.31
2022-07-31T09:59:23.940Z,22.65
2022-07-31T10:01:55.832Z,22.65
2022-07-31T10:04:26.362Z,21.75
2022-07-31T10:06:57.547Z,21.67
2022-07-31T10:09:30.920Z,21.67
2022-07-31T10:12:05.212Z,21.06
2022-07-31T10:14:38.161Z,21.29
2022-07-31T10:17:13.700Z,21.29
2022-07-31T10:19:48.688Z,22.27
2022-07-31T10:22:23.423Z,22.07
2022-07-31T10:24:55.366Z,22.90
2022-07-31T10:28:18.509Z,22.03
2022-07-31T10:30:14.389Z,22.03
2022-07-31T10:32:45.885Z,21.78
2022-07-31T10:35:17.631Z,22.33
2022-07-31T10:38:08.150Z,21.20
2022-07-31T10:40:44.433Z,22.42
2022-07-31T10:43:29.862Z,22.41
2022-07-31T10:46:00.319Z,22.41
2022-07-31T10:48:30.744Z,21.22
2022-07-31T10:51:03.816Z,23.20
2022-07-31T10:53:50.592Z,21.21
2022-07-31T10:56:14.357Z,21.21
2022-07-31T10:58:52.306Z,20.92
2022-07-31T11:01:24.204Z,23.24
2022-07-31T11:06:52.140Z,20.98
2022-07-31T11:09:27.063Z,20.38
2022-07-31T11:11:57.450Z,21.45
2022-07-31T11:14:38.699Z,20.67
2022-07-31T11:17:09.163Z,22.10
2022-07-31T11:19:43.850Z,20.72
2022-07-31T11:22:32.053Z,19.89
2022-07-31T11:24:55.727Z,19.89
2022-07-31T11:27:34.669Z,20.64
2022-07-31T11:30:12.617Z,20.40
2022-07-31T11:32:40.810Z,19.72
2022-07-31T11:35:11.765Z,20.59
2022-07-31T11:37:56.326Z,20.55
2022-07-31T11:40:16.374Z,20.54
2022-07-31T11:43:04.619Z,19.50
2022-07-31T11:45:20.438Z,19.72
2022-07-31T11:48:12.086Z,19.72
2022-07-31T11:50:22.898Z,19.85
2022-07-31T11:52:56.058Z,19.69
2022-07-31T11:55:26.606Z,19.73
2022-07-31T11:57:58.326Z,19.19
2022-07-31T12:00:31.580Z,19.74
2022-07-31T12:03:02.367Z,20.00
2022-07-31T12:05:37.745Z,19.36
2022-07-31T12:08:14.250Z,19.81
2022-07-31T12:10:46.337Z,20.36
2022-07-31T15:11:12.956Z,27.95
2022-07-31T15:13:43.416Z,27.95
2022-07-31T15:16:13.977Z,27.32
2022-07-31T15:18:44.215Z,28.02
2022-07-31T15:21:15.561Z,29.07
2022-07-31T15:23:45.944Z,28.83
2022-07-31T15:26:16.157Z,29.83
2022-07-31T15:28:46.485Z,29.83
2022-07-31T15:31:16.769Z,30.06
2022-07-31T15:33:47.092Z,30.31
2022-07-31T15:36:17.831Z,30.31
2022-07-31T15:38:48.352Z,29.56
2022-07-31T15:41:19.261Z,30.04
2022-07-31T15:43:49.535Z,30.04
2022-07-31T15:46:19.808Z,31.40
2022-07-31T15:48:50.219Z,31.35
2022-07-31T15:51:20.369Z,31.35
2022-07-31T15:53:50.795Z,30.34
2022-07-31T15:56:21.199Z,31.04
2022-07-31T15:58:53.884Z,30.02
2022-07-31T16:01:23.581Z,30.02
2022-07-31T16:03:53.954Z,30.99
2022-07-31T16:06:28.148Z,30.99
2022-07-31T16:08:59.087Z,32.09
2022-07-31T16:12:05.518Z,31.06
2022-07-31T16:14:01.294Z,31.06
2022-07-31T16:16:32.116Z,31.98
2022-07-31T16:19:03.098Z,32.39
2022-07-31T16:21:33.597Z,32.11
2022-07-31T16:24:05.698Z,32.11
2022-07-31T16:26:36.089Z,32.58
2022-07-31T16:29:07.006Z,32.58
2022-07-31T16:31:39.250Z,32.34
2022-07-31T16:34:09.755Z,32.41
2022-07-31T16:36:40.487Z,32.41
2022-07-31T16:39:20.345Z,33.92
2022-07-31T16:41:54.378Z,31.49
2022-07-31T16:44:14.906Z,32.68
2022-07-31T16:46:45.213Z,32.68
2022-07-31T16:49:35.394Z,31.27
2022-07-31T16:51:48.232Z,33.29
2022-07-31T16:54:19.085Z,33.29
2022-07-31T16:56:49.520Z,32.74
2022-07-31T16:59:19.832Z,33.43
2022-07-31T17:01:57.154Z,33.69
2022-07-31T17:04:23.540Z,33.26
2022-07-31T17:06:53.768Z,33.26
2022-07-31T17:09:24.302Z,35.06
2022-07-31T17:11:56.506Z,35.06
2022-07-31T17:14:28.198Z,33.47
2022-07-31T17:16:59.119Z,34.42
2022-07-31T17:19:41.234Z,34.39
2022-07-31T17:22:02.639Z,34.39
2022-07-31T17:24:34.660Z,34.59
2022-07-31T17:27:08.111Z,34.13
2022-07-31T17:29:40.817Z,35.22
2022-07-31T17:32:12.594Z,35.22
2022-07-31T17:34:43.519Z,35.20
2022-07-31T17:37:13.814Z,36.09
2022-07-31T17:39:47.741Z,35.22
2022-07-31T17:42:23.539Z,35.22
2022-07-31T17:44:55.047Z,35.16
2022-07-31T17:47:23.653Z,35.70
2022-07-31T17:49:54.333Z,35.61
2022-07-31T17:52:24.609Z,35.85
2022-07-31T17:54:54.924Z,35.85
2022-07-31T17:57:25.313Z,35.18
2022-07-31T17:59:55.454Z,36.82
2022-07-31T18:02:30.231Z,36.82
2022-07-31T18:05:02.988Z,36.73
2022-07-31T18:07:33.819Z,36.73
2022-07-31T18:10:08.745Z,36.54
2022-07-31T18:12:59.987Z,37.53
2022-07-31T18:15:35.827Z,37.53
2022-07-31T18:18:06.330Z,36.72
2022-07-31T18:20:39.326Z,37.45
2022-07-31T18:23:11.074Z,37.45
2022-07-31T18:25:43.125Z,37.61
2022-07-31T18:28:13.533Z,37.58
2022-07-31T18:30:45.545Z,38.71
2022-07-31T18:33:17.589Z,38.71
2022-07-31T18:35:48.277Z,38.01
2022-07-31T18:38:20.228Z,37.94
2022-07-31T18:40:51.604Z,37.94
2022-07-31T18:43:22.427Z,38.41
2022-07-31T18:45:52.743Z,39.45
2022-07-31T18:48:24.439Z,39.38
2022-07-31T18:51:01.572Z,39.51
2022-07-31T18:53:28.673Z,39.51
2022-07-31T18:56:03.869Z,39.20
2022-07-31T18:58:38.210Z,39.82
2022-07-31T19:01:11.136Z,39.26
2022-07-31T19:03:41.994Z,39.71
2022-07-31T19:06:13.643Z,39.75
2022-07-31T19:08:45.191Z,40.76
2022-07-31T19:11:15.495Z,40.85
2022-07-31T19:13:48.474Z,40.22
2022-07-31T19:16:18.841Z,40.85
2022-07-31T19:18:50.911Z,41.41
2022-07-31T19:21:41.590Z,41.41
2022-07-31T19:23:53.585Z,42.41
2022-07-31T19:26:25.155Z,41.40
2022-07-31T19:28:56.073Z,41.40
2022-07-31T19:31:26.504Z,42.62
2022-07-31T19:33:58.259Z,42.30
2022-07-31T19:36:28.473Z,43.50
2022-07-31T19:39:00.373Z,42.88
2022-07-31T19:41:30.603Z,42.88
2022-07-31T19:44:01.096Z,43.28
2022-07-31T19:46:33.070Z,43.22
2022-07-31T19:49:03.760Z,43.31
2022-07-31T19:51:34.484Z,43.31
2022-07-31T19:54:04.794Z,43.98
2022-07-31T19:56:35.436Z,43.87
2022-07-31T19:59:06.871Z,44.86
2022-07-31T20:01:40.619Z,44.47
2022-07-31T20:04:11.448Z,44.93
2022-07-31T20:06:44.794Z,44.93
2022-07-31T20:09:16.553Z,44.71
2022-07-31T20:11:48.941Z,44.71
2022-07-31T20:14:20.495Z,45.17
2022-07-31T20:16:51.308Z,47.10
2022-07-31T20:19:23.276Z,44.59
2022-07-31T20:21:53.520Z,45.35
2022-07-31T20:24:24.363Z,45.68
2022-07-31T20:26:55.179Z,45.51
2022-07-31T20:29:25.736Z,45.66
2022-07-31T20:31:55.982Z,46.47
2022-07-31T20:34:26.480Z,46.47
2022-07-31T20:36:56.786Z,45.63
2022-07-31T20:39:34.029Z,48.02
2022-07-31T20:42:02.158Z,48.02
2022-07-31T20:44:34.447Z,46.92
2022-07-31T20:47:06.130Z,46.65
2022-07-31T20:49:37.458Z,46.65
2022-07-31T20:52:08.179Z,46.70
2022-07-31T20:54:40.389Z,47.08
2022-07-31T20:57:11.915Z,47.08
2022-07-31T20:59:42.298Z,47.50
2022-07-31T21:02:12.748Z,47.15
2022-07-31T21:04:43.121Z,48.52
2022-07-31T21:07:13.867Z,48.13
2022-07-31T21:09:44.511Z,47.89
2022-07-31T21:12:14.851Z,47.89
2022-07-31T21:14:45.444Z,49.83
2022-07-31T21:17:15.781Z,49.07
2022-07-31T21:19:46.149Z,48.66
2022-07-31T21:22:16.430Z,48.66
2022-07-31T21:24:47.582Z,47.92
2022-07-31T21:27:18.294Z,47.73
2022-07-31T21:29:55.071Z,46.89
2022-07-31T21:32:22.744Z,46.89
2022-07-31T21:34:53.935Z,47.82
2022-07-31T21:37:25.405Z,47.82
2022-07-31T21:39:57.354Z,47.60
2022-07-31T21:42:27.803Z,48.40
2022-07-31T21:44:58.906Z,47.91
2022-07-31T21:47:52.700Z,47.43
2022-07-31T21:50:06.370Z,47.03
2022-07-31T21:52:37.187Z,47.03
2022-07-31T21:55:07.710Z,47.66
2022-07-31T21:57:59.144Z,47.66
2022-07-31T22:00:14.153Z,48.45
2022-07-31T22:02:44.492Z,48.45
2022-07-31T22:05:14.777Z,47.20
2022-07-31T22:07:48.781Z,49.43
2022-07-31T22:10:20.115Z,47.34
2022-07-31T22:12:50.562Z,50.15
2022-07-31T22:15:20.824Z,50.15
2022-07-31T22:17:51.367Z,50.34
2022-07-31T22:20:22.018Z,49.44
2022-07-31T22:22:52.873Z,49.92
2022-07-31T22:25:23.731Z,51.37
2022-07-31T22:27:54.185Z,51.37
2022-07-31T22:30:27.246Z,52.02
2022-07-31T22:33:00.544Z,51.91
2022-07-31T22:35:31.188Z,50.71
2022-07-31T22:38:01.816Z,50.71
2022-07-31T22:40:33.100Z,51.52
2022-07-31T22:43:04.290Z,51.48
2022-07-31T22:45:36.632Z,53.50
2022-07-31T22:48:13.977Z,53.50
2022-07-31T22:50:44.314Z,52.15
2022-07-31T22:53:14.572Z,51.58
2022-07-31T22:55:45.943Z,52.16
2022-07-31T22:58:16.262Z,53.25
2022-07-31T23:00:48.371Z,51.67
2022-07-31T23:03:18.605Z,52.10
2022-07-31T23:06:12.176Z,51.54
2022-07-31T23:08:20.882Z,52.29
2022-07-31T23:10:51.345Z,51.76
2022-07-31T23:13:21.704Z,51.83
2022-07-31T23:15:51.898Z,53.07
2022-07-31T23:18:22.473Z,53.07
2022-07-31T23:20:52.919Z,54.00
2022-07-31T23:23:23.182Z,53.76
2022-07-31T23:25:53.477Z,54.83
2022-07-31T23:28:24.168Z,55.23
2022-07-31T23:30:54.600Z,54.54
2022-07-31T23:33:24.943Z,54.54
2022-07-31T23:35:55.219Z,57.06
2022-07-31T23:38:25.872Z,56.12
2022-07-31T23:40:56.269Z,55.97
2022-07-31T23:43:26.767Z,55.39
2022-07-31T23:45:57.217Z,56.05
2022-07-31T23:48:29.886Z,55.90
2022-07-31T23:51:00.407Z,55.76
2022-07-31T23:53:31.330Z,56.06
2022-07-31T23:56:01.594Z,56.02
2022-07-31T23:58:32.555Z,56.02
